Port Hardy, British Columbia

7:56 PM PDT on August 28, 2016 (GMT -0700)
Port Hardy | | Change Station

Elev 69 ft 50.68 °N, 127.37 °W | Updated 56 minutes ago

Light Rain Showers
Light Showers Rain
59 °F
Feels Like 59 °F
N
10
Wind Variable Wind from SE

Today
High -- | Low -- °F
--% Chance of Precip.
Yesterday
High -- | Low -- °F
Precip. -- in
Pressure 29.93 in
Visibility 15.0 miles
Clouds Scattered Clouds 3400 ft
Mostly Cloudy 4200 ft
Overcast 6200 ft
Dew Point 55 °F
Humidity 88%
Rainfall 0.00 in
Snow Depth Not available.
6:38 AM 8:21 PM
Waning Crescent, 11% visible
METAR CYZT 290200Z 13009KT 15SM -SHRA SCT034 BKN042 OVC062 15/13 A2993 RMK SC3SC4SC1 CVCTV CLD EMBD SLP135 DENSITY ALT 100FT
Pressure 29.93 in
Visibility 15.0 miles
Clouds Scattered Clouds 3400 ft
Mostly Cloudy 4200 ft
Overcast 6200 ft
Dew Point 55 °F
Humidity 88%
Rainfall 0.00 in
Snow Depth Not available.
6:38 AM 8:21 PM
Waning Crescent, 11% visible
METAR CYZT 290200Z 13009KT 15SM -SHRA SCT034 BKN042 OVC062 15/13 A2993 RMK SC3SC4SC1 CVCTV CLD EMBD SLP135 DENSITY ALT 100FT

10-Day Weather Forecast

No radar image for this location.
×

Almanac

Astronomy

Aug. 28, 2016 Rise Set
Actual Time
Civil Twilight
Nautical Twilight
Astronomical Twilight
Moon
Length of Visible Light
Length of Day
Tomorrow will be .
, % of the Moon is Illuminated

Today's Extremes

Country Highs Country Lows

Community

WunderPhotos

Upload Photos

1,935,780 photos uploaded!

WunderBlog® & News

Nearby

Air Quality

  Air Quality AQ Index Pollutant
Not available.

Snow Depth

Station Depth Elevation

Earthquake Activity

City Distance Mag. Time & Date
Minimum magnitude displayed is 2.5.

Coastal Water Temperatures

Place Temperature

Stations

Nearby Weather Stations

Station Location Temp. Windchill Dew Point Humidity Wind Precip. Elev Updated Type
                   

Watches & Warnings

There are currently no watches in effect.